sensor_id;sensor_type;location;lat;lon;timestamp;P1;durP1;ratioP1;P2;durP2;ratioP2
11473;SDS011;5793;52.238;13.438;2023-07-22T00:00:43;6.38;;;5.75;;
11473;SDS011;5793;52.238;13.438;2023-07-22T00:03:13;6.50;;;5.80;;
11473;SDS011;5793;52.238;13.438;2023-07-22T00:05:41;7.93;;;5.70;;
11473;SDS011;5793;52.238;13.438;2023-07-22T00:08:10;6.32;;;5.72;;
11473;SDS011;5793;52.238;13.438;2023-07-22T00:10:40;6.68;;;5.90;;
11473;SDS011;5793;52.238;13.438;2023-07-22T00:13:08;6.43;;;5.82;;
11473;SDS011;5793;52.238;13.438;2023-07-22T00:15:36;6.50;;;5.90;;
11473;SDS011;5793;52.238;13.438;2023-07-22T00:18:04;7.07;;;6.28;;
11473;SDS011;5793;52.238;13.438;2023-07-22T00:20:33;7.47;;;6.10;;
11473;SDS011;5793;52.238;13.438;2023-07-22T00:23:01;9.23;;;6.28;;
11473;SDS011;5793;52.238;13.438;2023-07-22T00:25:29;10.50;;;5.68;;
11473;SDS011;5793;52.238;13.438;2023-07-22T00:27:57;8.85;;;5.60;;
11473;SDS011;5793;52.238;13.438;2023-07-22T00:30:25;6.15;;;5.55;;
11473;SDS011;5793;52.238;13.438;2023-07-22T00:32:54;5.82;;;5.20;;
11473;SDS011;5793;52.238;13.438;2023-07-22T00:35:22;6.55;;;5.85;;
11473;SDS011;5793;52.238;13.438;2023-07-22T00:37:51;6.05;;;5.00;;
11473;SDS011;5793;52.238;13.438;2023-07-22T00:40:19;5.82;;;5.30;;
11473;SDS011;5793;52.238;13.438;2023-07-22T00:42:47;6.40;;;5.80;;
11473;SDS011;5793;52.238;13.438;2023-07-22T00:45:14;7.65;;;5.28;;
11473;SDS011;5793;52.238;13.438;2023-07-22T00:47:42;6.93;;;5.88;;
11473;SDS011;5793;52.238;13.438;2023-07-22T00:50:11;6.45;;;5.88;;
11473;SDS011;5793;52.238;13.438;2023-07-22T00:52:39;7.18;;;5.88;;
11473;SDS011;5793;52.238;13.438;2023-07-22T00:55:09;5.90;;;5.40;;
11473;SDS011;5793;52.238;13.438;2023-07-22T00:57:37;6.25;;;5.40;;
11473;SDS011;5793;52.238;13.438;2023-07-22T01:00:05;5.93;;;5.32;;
11473;SDS011;5793;52.238;13.438;2023-07-22T01:02:37;6.13;;;5.63;;
11473;SDS011;5793;52.238;13.438;2023-07-22T01:05:06;7.05;;;5.97;;
11473;SDS011;5793;52.238;13.438;2023-07-22T01:07:36;7.03;;;5.88;;
11473;SDS011;5793;52.238;13.438;2023-07-22T01:10:05;6.65;;;5.95;;
11473;SDS011;5793;52.238;13.438;2023-07-22T01:12:35;6.20;;;5.57;;
11473;SDS011;5793;52.238;13.438;2023-07-22T01:15:04;10.07;;;6.13;;
11473;SDS011;5793;52.238;13.438;2023-07-22T01:17:34;8.50;;;6.35;;
11473;SDS011;5793;52.238;13.438;2023-07-22T01:20:05;7.10;;;6.40;;
11473;SDS011;5793;52.238;13.438;2023-07-22T01:22:35;6.05;;;5.45;;
11473;SDS011;5793;52.238;13.438;2023-07-22T01:25:06;7.78;;;5.82;;
11473;SDS011;5793;52.238;13.438;2023-07-22T01:27:35;7.07;;;5.60;;
11473;SDS011;5793;52.238;13.438;2023-07-22T01:30:03;6.60;;;5.90;;
11473;SDS011;5793;52.238;13.438;2023-07-22T01:32:33;8.57;;;5.70;;
11473;SDS011;5793;52.238;13.438;2023-07-22T01:35:00;6.70;;;5.82;;
11473;SDS011;5793;52.238;13.438;2023-07-22T01:37:28;5.90;;;5.40;;
11473;SDS011;5793;52.238;13.438;2023-07-22T01:39:58;6.60;;;5.32;;
11473;SDS011;5793;52.238;13.438;2023-07-22T01:42:27;6.35;;;5.55;;
11473;SDS011;5793;52.238;13.438;2023-07-22T01:44:55;6.18;;;5.30;;
11473;SDS011;5793;52.238;13.438;2023-07-22T01:47:22;5.60;;;5.05;;
11473;SDS011;5793;52.238;13.438;2023-07-22T01:49:52;7.70;;;5.50;;
11473;SDS011;5793;52.238;13.438;2023-07-22T01:52:19;5.65;;;5.03;;
11473;SDS011;5793;52.238;13.438;2023-07-22T01:54:47;8.40;;;4.72;;
11473;SDS011;5793;52.238;13.438;2023-07-22T01:57:15;5.68;;;4.72;;
11473;SDS011;5793;52.238;13.438;2023-07-22T01:59:44;4.90;;;4.50;;
11473;SDS011;5793;52.238;13.438;2023-07-22T02:02:12;6.90;;;5.72;;
11473;SDS011;5793;52.238;13.438;2023-07-22T02:04:40;7.60;;;5.30;;
11473;SDS011;5793;52.238;13.438;2023-07-22T02:07:08;7.03;;;5.20;;
11473;SDS011;5793;52.238;13.438;2023-07-22T02:09:36;6.80;;;5.28;;
11473;SDS011;5793;52.238;13.438;2023-07-22T02:12:04;5.82;;;5.22;;
11473;SDS011;5793;52.238;13.438;2023-07-22T02:14:33;6.32;;;5.72;;
11473;SDS011;5793;52.238;13.438;2023-07-22T02:17:03;5.82;;;5.13;;
11473;SDS011;5793;52.238;13.438;2023-07-22T02:19:31;5.78;;;5.10;;
11473;SDS011;5793;52.238;13.438;2023-07-22T02:21:58;6.57;;;5.43;;
11473;SDS011;5793;52.238;13.438;2023-07-22T02:24:26;5.82;;;5.22;;
11473;SDS011;5793;52.238;13.438;2023-07-22T02:26:54;9.88;;;5.85;;
11473;SDS011;5793;52.238;13.438;2023-07-22T02:29:22;6.90;;;5.30;;
11473;SDS011;5793;52.238;13.438;2023-07-22T02:31:50;6.75;;;5.57;;
11473;SDS011;5793;52.238;13.438;2023-07-22T02:34:19;6.20;;;5.60;;
11473;SDS011;5793;52.238;13.438;2023-07-22T02:36:48;5.82;;;5.32;;
11473;SDS011;5793;52.238;13.438;2023-07-22T02:39:15;5.13;;;4.63;;
11473;SDS011;5793;52.238;13.438;2023-07-22T02:41:43;5.70;;;5.20;;
11473;SDS011;5793;52.238;13.438;2023-07-22T02:44:11;7.45;;;5.38;;
11473;SDS011;5793;52.238;13.438;2023-07-22T02:46:39;6.32;;;5.60;;
11473;SDS011;5793;52.238;13.438;2023-07-22T02:49:07;7.78;;;5.18;;
11473;SDS011;5793;52.238;13.438;2023-07-22T02:51:37;5.88;;;5.03;;
11473;SDS011;5793;52.238;13.438;2023-07-22T02:54:05;5.70;;;5.13;;
11473;SDS011;5793;52.238;13.438;2023-07-22T02:56:33;6.90;;;4.93;;
11473;SDS011;5793;52.238;13.438;2023-07-22T02:59:00;5.68;;;5.03;;
11473;SDS011;5793;52.238;13.438;2023-07-22T03:01:28;6.68;;;4.88;;
11473;SDS011;5793;52.238;13.438;2023-07-22T03:03:57;5.72;;;4.88;;
11473;SDS011;5793;52.238;13.438;2023-07-22T03:06:25;10.88;;;4.72;;
11473;SDS011;5793;52.238;13.438;2023-07-22T03:08:56;6.55;;;4.55;;
11473;SDS011;5793;52.238;13.438;2023-07-22T03:11:25;5.15;;;4.65;;
11473;SDS011;5793;52.238;13.438;2023-07-22T03:13:53;6.38;;;4.90;;
11473;SDS011;5793;52.238;13.438;2023-07-22T03:16:21;4.65;;;4.25;;
11473;SDS011;5793;52.238;13.438;2023-07-22T03:18:49;4.70;;;4.10;;
11473;SDS011;5793;52.238;13.438;2023-07-22T03:21:17;5.97;;;4.03;;
11473;SDS011;5793;52.238;13.438;2023-07-22T03:23:45;4.72;;;4.20;;
11473;SDS011;5793;52.238;13.438;2023-07-22T03:26:14;5.38;;;4.40;;
11473;SDS011;5793;52.238;13.438;2023-07-22T03:28:42;4.45;;;4.05;;
11473;SDS011;5793;52.238;13.438;2023-07-22T03:31:10;5.78;;;4.35;;
11473;SDS011;5793;52.238;13.438;2023-07-22T03:33:38;4.65;;;4.20;;
11473;SDS011;5793;52.238;13.438;2023-07-22T03:36:07;4.63;;;3.70;;
11473;SDS011;5793;52.238;13.438;2023-07-22T03:38:35;5.47;;;4.25;;
11473;SDS011;5793;52.238;13.438;2023-07-22T03:41:03;5.82;;;3.65;;
11473;SDS011;5793;52.238;13.438;2023-07-22T03:43:32;4.17;;;3.77;;
11473;SDS011;5793;52.238;13.438;2023-07-22T03:45:59;5.50;;;4.20;;
11473;SDS011;5793;52.238;13.438;2023-07-22T03:48:27;5.93;;;4.13;;
11473;SDS011;5793;52.238;13.438;2023-07-22T03:50:55;4.72;;;4.30;;
11473;SDS011;5793;52.238;13.438;2023-07-22T03:53:41;5.00;;;4.05;;
11473;SDS011;5793;52.238;13.438;2023-07-22T03:56:09;4.60;;;4.20;;
11473;SDS011;5793;52.238;13.438;2023-07-22T03:58:38;6.07;;;4.63;;
11473;SDS011;5793;52.238;13.438;2023-07-22T04:01:06;4.82;;;4.13;;
11473;SDS011;5793;52.238;13.438;2023-07-22T04:03:34;4.57;;;4.18;;
11473;SDS011;5793;52.238;13.438;2023-07-22T04:06:02;6.88;;;4.20;;
11473;SDS011;5793;52.238;13.438;2023-07-22T04:08:30;6.93;;;4.32;;
11473;SDS011;5793;52.238;13.438;2023-07-22T04:10:57;5.07;;;4.55;;
11473;SDS011;5793;52.238;13.438;2023-07-22T04:13:26;6.13;;;4.97;;
11473;SDS011;5793;52.238;13.438;2023-07-22T04:15:55;6.05;;;5.38;;
11473;SDS011;5793;52.238;13.438;2023-07-22T04:18:23;5.63;;;4.70;;
11473;SDS011;5793;52.238;13.438;2023-07-22T04:20:55;5.05;;;4.18;;
11473;SDS011;5793;52.238;13.438;2023-07-22T04:23:23;5.70;;;4.78;;
11473;SDS011;5793;52.238;13.438;2023-07-22T04:25:51;5.30;;;4.78;;
11473;SDS011;5793;52.238;13.438;2023-07-22T04:28:19;5.90;;;4.50;;
11473;SDS011;5793;52.238;13.438;2023-07-22T04:30:54;5.70;;;5.20;;
11473;SDS011;5793;52.238;13.438;2023-07-22T04:33:24;5.15;;;4.75;;
11473;SDS011;5793;52.238;13.438;2023-07-22T04:35:53;4.82;;;4.32;;
11473;SDS011;5793;52.238;13.438;2023-07-22T04:38:23;9.23;;;5.70;;
11473;SDS011;5793;52.238;13.438;2023-07-22T04:40:51;6.35;;;5.00;;
11473;SDS011;5793;52.238;13.438;2023-07-22T04:43:19;6.67;;;5.30;;
11473;SDS011;5793;52.238;13.438;2023-07-22T04:45:48;5.95;;;5.10;;
11473;SDS011;5793;52.238;13.438;2023-07-22T04:48:19;6.33;;;5.30;;
11473;SDS011;5793;52.238;13.438;2023-07-22T04:50:47;6.72;;;5.50;;
11473;SDS011;5793;52.238;13.438;2023-07-22T04:53:16;7.20;;;5.30;;
11473;SDS011;5793;52.238;13.438;2023-07-22T04:55:44;6.03;;;5.43;;
11473;SDS011;5793;52.238;13.438;2023-07-22T04:58:12;8.17;;;5.40;;
11473;SDS011;5793;52.238;13.438;2023-07-22T05:00:39;5.95;;;5.28;;
11473;SDS011;5793;52.238;13.438;2023-07-22T05:03:08;5.57;;;5.03;;
11473;SDS011;5793;52.238;13.438;2023-07-22T05:05:38;7.90;;;5.15;;
11473;SDS011;5793;52.238;13.438;2023-07-22T05:08:06;7.72;;;5.30;;
11473;SDS011;5793;52.238;13.438;2023-07-22T05:10:34;5.85;;;5.25;;
11473;SDS011;5793;52.238;13.438;2023-07-22T05:13:04;6.65;;;5.25;;
11473;SDS011;5793;52.238;13.438;2023-07-22T05:15:32;6.13;;;5.53;;
11473;SDS011;5793;52.238;13.438;2023-07-22T05:17:59;6.15;;;5.55;;
11473;SDS011;5793;52.238;13.438;2023-07-22T05:20:27;7.55;;;5.85;;
11473;SDS011;5793;52.238;13.438;2023-07-22T05:22:57;9.38;;;5.78;;
11473;SDS011;5793;52.238;13.438;2023-07-22T05:25:25;8.10;;;5.95;;
11473;SDS011;5793;52.238;13.438;2023-07-22T05:27:54;7.22;;;6.20;;
11473;SDS011;5793;52.238;13.438;2023-07-22T05:30:21;6.72;;;6.03;;
11473;SDS011;5793;52.238;13.438;2023-07-22T05:33:01;8.02;;;6.22;;
11473;SDS011;5793;52.238;13.438;2023-07-22T05:35:29;9.73;;;5.90;;
11473;SDS011;5793;52.238;13.438;2023-07-22T05:37:58;7.50;;;5.85;;
11473;SDS011;5793;52.238;13.438;2023-07-22T05:40:27;9.48;;;6.63;;
11473;SDS011;5793;52.238;13.438;2023-07-22T05:42:54;7.88;;;6.70;;
11473;SDS011;5793;52.238;13.438;2023-07-22T05:45:22;7.72;;;6.13;;
11473;SDS011;5793;52.238;13.438;2023-07-22T05:47:50;8.32;;;6.82;;
11473;SDS011;5793;52.238;13.438;2023-07-22T05:50:18;10.65;;;7.18;;
11473;SDS011;5793;52.238;13.438;2023-07-22T05:52:46;9.07;;;6.88;;
11473;SDS011;5793;52.238;13.438;2023-07-22T05:55:15;9.63;;;7.07;;
11473;SDS011;5793;52.238;13.438;2023-07-22T05:57:43;8.13;;;6.70;;
11473;SDS011;5793;52.238;13.438;2023-07-22T06:00:11;8.10;;;6.80;;
11473;SDS011;5793;52.238;13.438;2023-07-22T06:02:40;9.07;;;6.97;;
11473;SDS011;5793;52.238;13.438;2023-07-22T06:05:08;9.52;;;7.15;;
11473;SDS011;5793;52.238;13.438;2023-07-22T06:07:36;10.38;;;7.75;;
11473;SDS011;5793;52.238;13.438;2023-07-22T06:10:04;8.98;;;7.00;;
11473;SDS011;5793;52.238;13.438;2023-07-22T06:12:35;8.00;;;6.45;;
11473;SDS011;5793;52.238;13.438;2023-07-22T06:15:05;8.98;;;7.10;;
11473;SDS011;5793;52.238;13.438;2023-07-22T06:17:35;8.55;;;6.35;;
11473;SDS011;5793;52.238;13.438;2023-07-22T06:20:03;8.95;;;6.05;;
11473;SDS011;5793;52.238;13.438;2023-07-22T06:22:31;12.35;;;7.10;;
11473;SDS011;5793;52.238;13.438;2023-07-22T06:24:59;7.63;;;6.03;;
11473;SDS011;5793;52.238;13.438;2023-07-22T06:27:27;6.80;;;5.90;;
11473;SDS011;5793;52.238;13.438;2023-07-22T06:29:56;8.00;;;5.50;;
11473;SDS011;5793;52.238;13.438;2023-07-22T06:32:24;7.53;;;5.57;;
11473;SDS011;5793;52.238;13.438;2023-07-22T06:34:52;6.43;;;4.97;;
11473;SDS011;5793;52.238;13.438;2023-07-22T06:37:20;5.90;;;5.07;;
11473;SDS011;5793;52.238;13.438;2023-07-22T06:39:48;5.75;;;4.57;;
11473;SDS011;5793;52.238;13.438;2023-07-22T06:42:16;6.47;;;5.20;;
11473;SDS011;5793;52.238;13.438;2023-07-22T06:44:43;6.75;;;4.63;;
11473;SDS011;5793;52.238;13.438;2023-07-22T06:47:13;6.35;;;4.28;;
11473;SDS011;5793;52.238;13.438;2023-07-22T06:49:41;5.10;;;3.92;;
11473;SDS011;5793;52.238;13.438;2023-07-22T06:52:12;5.18;;;4.18;;
11473;SDS011;5793;52.238;13.438;2023-07-22T06:54:40;7.70;;;4.38;;
11473;SDS011;5793;52.238;13.438;2023-07-22T06:57:08;7.78;;;4.00;;
11473;SDS011;5793;52.238;13.438;2023-07-22T06:59:36;4.65;;;3.55;;
11473;SDS011;5793;52.238;13.438;2023-07-22T07:02:04;4.57;;;3.30;;
11473;SDS011;5793;52.238;13.438;2023-07-22T07:04:33;5.95;;;3.88;;
11473;SDS011;5793;52.238;13.438;2023-07-22T07:07:01;5.68;;;3.78;;
11473;SDS011;5793;52.238;13.438;2023-07-22T07:09:29;5.43;;;3.40;;
11473;SDS011;5793;52.238;13.438;2023-07-22T07:11:57;4.88;;;3.58;;
11473;SDS011;5793;52.238;13.438;2023-07-22T07:14:25;5.53;;;3.50;;
11473;SDS011;5793;52.238;13.438;2023-07-22T07:16:53;6.43;;;3.88;;
11473;SDS011;5793;52.238;13.438;2023-07-22T07:19:21;4.20;;;3.50;;
11473;SDS011;5793;52.238;13.438;2023-07-22T07:21:51;5.78;;;3.63;;
11473;SDS011;5793;52.238;13.438;2023-07-22T07:24:18;6.13;;;3.80;;
11473;SDS011;5793;52.238;13.438;2023-07-22T07:26:46;5.78;;;3.47;;
11473;SDS011;5793;52.238;13.438;2023-07-22T07:29:14;4.35;;;3.50;;
11473;SDS011;5793;52.238;13.438;2023-07-22T07:32:02;5.38;;;3.38;;
11473;SDS011;5793;52.238;13.438;2023-07-22T07:34:31;6.78;;;3.67;;
11473;SDS011;5793;52.238;13.438;2023-07-22T07:37:00;8.77;;;3.13;;
11473;SDS011;5793;52.238;13.438;2023-07-22T07:39:28;5.78;;;3.55;;
11473;SDS011;5793;52.238;13.438;2023-07-22T07:41:56;6.35;;;3.67;;
11473;SDS011;5793;52.238;13.438;2023-07-22T07:44:24;6.60;;;3.30;;
11473;SDS011;5793;52.238;13.438;2023-07-22T07:46:52;6.10;;;3.90;;
11473;SDS011;5793;52.238;13.438;2023-07-22T07:49:20;6.18;;;3.28;;
11473;SDS011;5793;52.238;13.438;2023-07-22T07:51:47;5.15;;;3.45;;
11473;SDS011;5793;52.238;13.438;2023-07-22T07:54:16;6.07;;;3.45;;
11473;SDS011;5793;52.238;13.438;2023-07-22T07:56:44;4.80;;;3.53;;
11473;SDS011;5793;52.238;13.438;2023-07-22T07:59:12;5.20;;;3.40;;
11473;SDS011;5793;52.238;13.438;2023-07-22T08:01:40;5.47;;;3.08;;
11473;SDS011;5793;52.238;13.438;2023-07-22T08:04:08;6.10;;;3.55;;
11473;SDS011;5793;52.238;13.438;2023-07-22T08:06:36;6.40;;;3.83;;
11473;SDS011;5793;52.238;13.438;2023-07-22T08:09:04;4.68;;;3.75;;
11473;SDS011;5793;52.238;13.438;2023-07-22T08:11:33;4.00;;;3.58;;
11473;SDS011;5793;52.238;13.438;2023-07-22T08:14:01;5.13;;;3.60;;
11473;SDS011;5793;52.238;13.438;2023-07-22T08:16:29;4.97;;;3.75;;
11473;SDS011;5793;52.238;13.438;2023-07-22T08:18:57;4.22;;;3.60;;
11473;SDS011;5793;52.238;13.438;2023-07-22T08:21:25;6.38;;;4.10;;
11473;SDS011;5793;52.238;13.438;2023-07-22T08:23:52;5.05;;;3.53;;
11473;SDS011;5793;52.238;13.438;2023-07-22T08:26:20;6.22;;;3.88;;
11473;SDS011;5793;52.238;13.438;2023-07-22T08:28:49;5.43;;;3.88;;
11473;SDS011;5793;52.238;13.438;2023-07-22T08:31:17;7.00;;;3.53;;
11473;SDS011;5793;52.238;13.438;2023-07-22T08:33:45;6.38;;;3.42;;
11473;SDS011;5793;52.238;13.438;2023-07-22T08:36:13;3.85;;;3.20;;
11473;SDS011;5793;52.238;13.438;2023-07-22T08:38:41;5.18;;;3.88;;
11473;SDS011;5793;52.238;13.438;2023-07-22T08:41:09;5.35;;;3.80;;
11473;SDS011;5793;52.238;13.438;2023-07-22T08:43:41;4.97;;;3.95;;
11473;SDS011;5793;52.238;13.438;2023-07-22T08:46:13;4.07;;;3.42;;
11473;SDS011;5793;52.238;13.438;2023-07-22T08:48:42;5.88;;;3.67;;
11473;SDS011;5793;52.238;13.438;2023-07-22T08:51:15;8.43;;;3.78;;
11473;SDS011;5793;52.238;13.438;2023-07-22T08:53:44;4.40;;;3.53;;
11473;SDS011;5793;52.238;13.438;2023-07-22T08:56:25;5.38;;;3.83;;
11473;SDS011;5793;52.238;13.438;2023-07-22T08:58:54;4.80;;;3.97;;
11473;SDS011;5793;52.238;13.438;2023-07-22T09:01:24;6.72;;;3.75;;
11473;SDS011;5793;52.238;13.438;2023-07-22T09:03:52;5.50;;;3.50;;
11473;SDS011;5793;52.238;13.438;2023-07-22T09:06:23;4.47;;;3.10;;
11473;SDS011;5793;52.238;13.438;2023-07-22T09:08:51;4.10;;;3.30;;
11473;SDS011;5793;52.238;13.438;2023-07-22T09:11:19;7.80;;;3.83;;
11473;SDS011;5793;52.238;13.438;2023-07-22T09:13:49;4.55;;;3.53;;
11473;SDS011;5793;52.238;13.438;2023-07-22T09:16:19;4.28;;;3.15;;
11473;SDS011;5793;52.238;13.438;2023-07-22T09:18:49;4.13;;;3.63;;
11473;SDS011;5793;52.238;13.438;2023-07-22T09:21:17;5.07;;;3.67;;
11473;SDS011;5793;52.238;13.438;2023-07-22T09:23:46;4.07;;;3.42;;
11473;SDS011;5793;52.238;13.438;2023-07-22T09:26:14;3.97;;;3.53;;
11473;SDS011;5793;52.238;13.438;2023-07-22T09:28:47;4.03;;;3.33;;
11473;SDS011;5793;52.238;13.438;2023-07-22T09:31:15;3.92;;;3.05;;
11473;SDS011;5793;52.238;13.438;2023-07-22T09:33:43;3.80;;;3.30;;
11473;SDS011;5793;52.238;13.438;2023-07-22T09:36:13;4.03;;;3.38;;
11473;SDS011;5793;52.238;13.438;2023-07-22T09:38:40;4.00;;;3.17;;
11473;SDS011;5793;52.238;13.438;2023-07-22T09:41:08;4.90;;;3.10;;
11473;SDS011;5793;52.238;13.438;2023-07-22T09:43:36;3.63;;;3.00;;
11473;SDS011;5793;52.238;13.438;2023-07-22T09:46:06;3.88;;;3.10;;
11473;SDS011;5793;52.238;13.438;2023-07-22T09:48:51;4.88;;;2.95;;
11473;SDS011;5793;52.238;13.438;2023-07-22T09:51:21;4.03;;;3.47;;
11473;SDS011;5793;52.238;13.438;2023-07-22T09:53:59;12.77;;;3.65;;
11473;SDS011;5793;52.238;13.438;2023-07-22T09:56:28;4.03;;;3.40;;
11473;SDS011;5793;52.238;13.438;2023-07-22T09:58:57;3.60;;;3.30;;
11473;SDS011;5793;52.238;13.438;2023-07-22T10:01:26;4.63;;;3.40;;
11473;SDS011;5793;52.238;13.438;2023-07-22T10:03:55;4.50;;;3.75;;
11473;SDS011;5793;52.238;13.438;2023-07-22T10:06:26;5.15;;;3.70;;
11473;SDS011;5793;52.238;13.438;2023-07-22T10:08:55;5.38;;;3.25;;
11473;SDS011;5793;52.238;13.438;2023-07-22T10:11:23;5.88;;;3.47;;
11473;SDS011;5793;52.238;13.438;2023-07-22T10:13:54;3.75;;;3.30;;
11473;SDS011;5793;52.238;13.438;2023-07-22T10:16:23;4.80;;;3.38;;
11473;SDS011;5793;52.238;13.438;2023-07-22T10:18:51;4.70;;;3.45;;
11473;SDS011;5793;52.238;13.438;2023-07-22T10:21:21;4.15;;;3.45;;
11473;SDS011;5793;52.238;13.438;2023-07-22T10:23:51;3.33;;;3.00;;
11473;SDS011;5793;52.238;13.438;2023-07-22T10:26:19;3.47;;;3.17;;
11473;SDS011;5793;52.238;13.438;2023-07-22T10:29:07;4.57;;;3.58;;
11473;SDS011;5793;52.238;13.438;2023-07-22T10:31:37;3.53;;;3.22;;
11473;SDS011;5793;52.238;13.438;2023-07-22T10:34:05;3.55;;;3.25;;
11473;SDS011;5793;52.238;13.438;2023-07-22T10:36:33;4.93;;;3.60;;
11473;SDS011;5793;52.238;13.438;2023-07-22T10:39:02;4.38;;;3.33;;
11473;SDS011;5793;52.238;13.438;2023-07-22T10:41:32;4.57;;;3.40;;
11473;SDS011;5793;52.238;13.438;2023-07-22T10:44:00;5.43;;;3.78;;
11473;SDS011;5793;52.238;13.438;2023-07-22T10:46:31;4.28;;;3.63;;
11473;SDS011;5793;52.238;13.438;2023-07-22T10:49:06;4.03;;;3.20;;
11473;SDS011;5793;52.238;13.438;2023-07-22T10:51:37;4.15;;;3.38;;
11473;SDS011;5793;52.238;13.438;2023-07-22T10:54:11;5.55;;;3.58;;
11473;SDS011;5793;52.238;13.438;2023-07-22T10:56:40;5.10;;;3.67;;
11473;SDS011;5793;52.238;13.438;2023-07-22T10:59:11;4.60;;;3.60;;
11473;SDS011;5793;52.238;13.438;2023-07-22T11:01:39;7.03;;;3.83;;
11473;SDS011;5793;52.238;13.438;2023-07-22T11:04:17;3.92;;;3.47;;
11473;SDS011;5793;52.238;13.438;2023-07-22T11:07:08;4.32;;;3.72;;
11473;SDS011;5793;52.238;13.438;2023-07-22T11:09:38;4.25;;;3.50;;
11473;SDS011;5793;52.238;13.438;2023-07-22T11:12:12;5.55;;;4.20;;
11473;SDS011;5793;52.238;13.438;2023-07-22T11:14:46;5.28;;;4.18;;
11473;SDS011;5793;52.238;13.438;2023-07-22T11:17:15;4.50;;;4.07;;
11473;SDS011;5793;52.238;13.438;2023-07-22T11:19:44;5.10;;;3.97;;
11473;SDS011;5793;52.238;13.438;2023-07-22T11:22:12;5.10;;;4.30;;
11473;SDS011;5793;52.238;13.438;2023-07-22T11:24:42;5.43;;;4.20;;
11473;SDS011;5793;52.238;13.438;2023-07-22T11:27:10;4.72;;;3.70;;
11473;SDS011;5793;52.238;13.438;2023-07-22T11:29:39;4.50;;;3.95;;
11473;SDS011;5793;52.238;13.438;2023-07-22T11:32:14;4.88;;;3.85;;
11473;SDS011;5793;52.238;13.438;2023-07-22T11:34:42;6.40;;;3.95;;
11473;SDS011;5793;52.238;13.438;2023-07-22T11:37:11;4.68;;;3.70;;
11473;SDS011;5793;52.238;13.438;2023-07-22T11:39:42;5.07;;;3.92;;
11473;SDS011;5793;52.238;13.438;2023-07-22T11:42:10;4.90;;;4.10;;
11473;SDS011;5793;52.238;13.438;2023-07-22T11:44:38;4.25;;;3.83;;
11473;SDS011;5793;52.238;13.438;2023-07-22T11:47:07;4.95;;;4.45;;
11473;SDS011;5793;52.238;13.438;2023-07-22T11:49:35;5.45;;;4.18;;
11473;SDS011;5793;52.238;13.438;2023-07-22T11:52:05;6.90;;;4.03;;
11473;SDS011;5793;52.238;13.438;2023-07-22T11:54:35;5.63;;;4.22;;
11473;SDS011;5793;52.238;13.438;2023-07-22T11:57:11;5.90;;;3.83;;
11473;SDS011;5793;52.238;13.438;2023-07-22T11:59:42;5.68;;;3.97;;
11473;SDS011;5793;52.238;13.438;2023-07-22T12:02:12;4.57;;;4.07;;
11473;SDS011;5793;52.238;13.438;2023-07-22T12:04:40;4.65;;;4.03;;
11473;SDS011;5793;52.238;13.438;2023-07-22T12:07:20;5.07;;;4.07;;
11473;SDS011;5793;52.238;13.438;2023-07-22T12:09:49;5.30;;;4.03;;
11473;SDS011;5793;52.238;13.438;2023-07-22T12:12:19;6.05;;;3.75;;
11473;SDS011;5793;52.238;13.438;2023-07-22T12:14:47;4.43;;;3.78;;
11473;SDS011;5793;52.238;13.438;2023-07-22T12:17:14;4.22;;;3.72;;
11473;SDS011;5793;52.238;13.438;2023-07-22T12:19:50;4.75;;;3.80;;
11473;SDS011;5793;52.238;13.438;2023-07-22T12:22:19;4.63;;;4.07;;
11473;SDS011;5793;52.238;13.438;2023-07-22T12:24:47;6.88;;;4.10;;
11473;SDS011;5793;52.238;13.438;2023-07-22T12:27:15;5.38;;;3.97;;
11473;SDS011;5793;52.238;13.438;2023-07-22T12:29:44;4.35;;;3.85;;
11473;SDS011;5793;52.238;13.438;2023-07-22T12:32:11;5.55;;;4.25;;
11473;SDS011;5793;52.238;13.438;2023-07-22T12:34:39;4.90;;;3.88;;
11473;SDS011;5793;52.238;13.438;2023-07-22T12:37:07;4.82;;;4.10;;
11473;SDS011;5793;52.238;13.438;2023-07-22T12:39:35;4.15;;;3.67;;
11473;SDS011;5793;52.238;13.438;2023-07-22T12:42:03;5.93;;;3.85;;
11473;SDS011;5793;52.238;13.438;2023-07-22T12:44:31;4.13;;;3.72;;
11473;SDS011;5793;52.238;13.438;2023-07-22T12:47:00;5.03;;;4.20;;
11473;SDS011;5793;52.238;13.438;2023-07-22T12:49:28;5.63;;;4.13;;
11473;SDS011;5793;52.238;13.438;2023-07-22T12:51:55;4.63;;;4.10;;
11473;SDS011;5793;52.238;13.438;2023-07-22T12:54:29;5.30;;;4.20;;
11473;SDS011;5793;52.238;13.438;2023-07-22T12:56:57;4.07;;;3.53;;
11473;SDS011;5793;52.238;13.438;2023-07-22T12:59:26;4.63;;;3.92;;
11473;SDS011;5793;52.238;13.438;2023-07-22T13:01:53;4.28;;;3.88;;
11473;SDS011;5793;52.238;13.438;2023-07-22T13:04:24;4.95;;;4.15;;
11473;SDS011;5793;52.238;13.438;2023-07-22T13:06:52;5.53;;;3.88;;
11473;SDS011;5793;52.238;13.438;2023-07-22T13:09:20;3.90;;;3.50;;
11473;SDS011;5793;52.238;13.438;2023-07-22T13:11:48;4.22;;;3.83;;
11473;SDS011;5793;52.238;13.438;2023-07-22T13:14:15;4.55;;;3.83;;
11473;SDS011;5793;52.238;13.438;2023-07-22T13:16:44;3.70;;;3.40;;
11473;SDS011;5793;52.238;13.438;2023-07-22T13:19:12;4.07;;;3.67;;
11473;SDS011;5793;52.238;13.438;2023-07-22T13:21:41;4.50;;;3.67;;
11473;SDS011;5793;52.238;13.438;2023-07-22T13:24:09;5.97;;;4.20;;
11473;SDS011;5793;52.238;13.438;2023-07-22T13:26:37;6.10;;;3.90;;
11473;SDS011;5793;52.238;13.438;2023-07-22T13:29:06;4.63;;;3.72;;
11473;SDS011;5793;52.238;13.438;2023-07-22T13:31:35;5.90;;;4.40;;
11473;SDS011;5793;52.238;13.438;2023-07-22T13:34:03;5.82;;;3.92;;
11473;SDS011;5793;52.238;13.438;2023-07-22T13:36:31;4.95;;;4.45;;
11473;SDS011;5793;52.238;13.438;2023-07-22T13:39:00;5.15;;;4.55;;
11473;SDS011;5793;52.238;13.438;2023-07-22T13:41:28;5.68;;;4.55;;
11473;SDS011;5793;52.238;13.438;2023-07-22T13:43:55;5.22;;;4.65;;
11473;SDS011;5793;52.238;13.438;2023-07-22T13:46:23;5.95;;;5.35;;
11473;SDS011;5793;52.238;13.438;2023-07-22T13:48:51;6.30;;;5.30;;
11473;SDS011;5793;52.238;13.438;2023-07-22T13:51:19;5.75;;;4.15;;
11473;SDS011;5793;52.238;13.438;2023-07-22T13:53:47;5.35;;;4.25;;
11473;SDS011;5793;52.238;13.438;2023-07-22T13:56:16;4.78;;;4.30;;
11473;SDS011;5793;52.238;13.438;2023-07-22T13:58:44;4.43;;;3.85;;
11473;SDS011;5793;52.238;13.438;2023-07-22T14:01:12;5.05;;;4.13;;
11473;SDS011;5793;52.238;13.438;2023-07-22T14:03:41;4.55;;;4.15;;
11473;SDS011;5793;52.238;13.438;2023-07-22T14:06:09;6.50;;;5.00;;
11473;SDS011;5793;52.238;13.438;2023-07-22T14:08:37;8.27;;;4.78;;
11473;SDS011;5793;52.238;13.438;2023-07-22T14:11:08;5.35;;;4.85;;
11473;SDS011;5793;52.238;13.438;2023-07-22T14:13:37;5.15;;;4.65;;
11473;SDS011;5793;52.238;13.438;2023-07-22T14:16:05;5.30;;;4.80;;
11473;SDS011;5793;52.238;13.438;2023-07-22T14:18:47;5.15;;;4.65;;
11473;SDS011;5793;52.238;13.438;2023-07-22T14:21:15;4.80;;;4.32;;
11473;SDS011;5793;52.238;13.438;2023-07-22T14:23:43;6.15;;;5.50;;
11473;SDS011;5793;52.238;13.438;2023-07-22T14:26:11;4.68;;;4.28;;
11473;SDS011;5793;52.238;13.438;2023-07-22T14:28:40;5.07;;;4.47;;
11473;SDS011;5793;52.238;13.438;2023-07-22T14:31:08;5.80;;;4.90;;
11473;SDS011;5793;52.238;13.438;2023-07-22T14:33:36;5.78;;;4.82;;
11473;SDS011;5793;52.238;13.438;2023-07-22T14:36:04;5.15;;;4.65;;
11473;SDS011;5793;52.238;13.438;2023-07-22T14:38:32;5.03;;;4.43;;
11473;SDS011;5793;52.238;13.438;2023-07-22T14:40:59;5.40;;;4.72;;
11473;SDS011;5793;52.238;13.438;2023-07-22T14:43:27;5.53;;;4.80;;
11473;SDS011;5793;52.238;13.438;2023-07-22T14:45:56;5.35;;;4.85;;
11473;SDS011;5793;52.238;13.438;2023-07-22T14:48:24;6.55;;;5.10;;
11473;SDS011;5793;52.238;13.438;2023-07-22T14:50:52;4.70;;;4.30;;
11473;SDS011;5793;52.238;13.438;2023-07-22T14:53:20;5.28;;;4.40;;
11473;SDS011;5793;52.238;13.438;2023-07-22T14:55:48;6.70;;;6.10;;
11473;SDS011;5793;52.238;13.438;2023-07-22T14:58:18;4.65;;;4.15;;